sensor_id;sensor_type;location;lat;lon;timestamp;P1;durP1;ratioP1;P2;durP2;ratioP2
19551;SDS011;9921;47.186;9.778;2023-07-09T00:00:12;0.10;;;0.10;;
19551;SDS011;9921;47.186;9.778;2023-07-09T00:02:41;0.10;;;0.10;;
19551;SDS011;9921;47.186;9.778;2023-07-09T00:05:09;0.08;;;0.08;;
19551;SDS011;9921;47.186;9.778;2023-07-09T00:07:39;0.00;;;0.00;;
19551;SDS011;9921;47.186;9.778;2023-07-09T00:10:12;0.00;;;0.00;;
19551;SDS011;9921;47.186;9.778;2023-07-09T00:12:41;0.10;;;0.10;;
19551;SDS011;9921;47.186;9.778;2023-07-09T00:15:08;0.00;;;0.00;;
19551;SDS011;9921;47.186;9.778;2023-07-09T00:17:38;0.00;;;0.00;;
19551;SDS011;9921;47.186;9.778;2023-07-09T00:20:06;0.03;;;0.03;;
19551;SDS011;9921;47.186;9.778;2023-07-09T00:22:38;0.08;;;0.08;;
19551;SDS011;9921;47.186;9.778;2023-07-09T00:25:07;0.10;;;0.10;;
19551;SDS011;9921;47.186;9.778;2023-07-09T00:27:39;0.00;;;0.00;;
19551;SDS011;9921;47.186;9.778;2023-07-09T00:30:14;0.10;;;0.10;;
19551;SDS011;9921;47.186;9.778;2023-07-09T00:32:43;0.00;;;0.00;;
19551;SDS011;9921;47.186;9.778;2023-07-09T00:35:10;0.10;;;0.10;;
19551;SDS011;9921;47.186;9.778;2023-07-09T00:37:40;0.00;;;0.00;;
19551;SDS011;9921;47.186;9.778;2023-07-09T00:40:10;0.05;;;0.05;;
19551;SDS011;9921;47.186;9.778;2023-07-09T00:42:42;0.00;;;0.00;;
19551;SDS011;9921;47.186;9.778;2023-07-09T00:45:17;0.00;;;0.00;;
19551;SDS011;9921;47.186;9.778;2023-07-09T00:47:47;0.00;;;0.00;;
19551;SDS011;9921;47.186;9.778;2023-07-09T00:50:21;0.00;;;0.00;;
19551;SDS011;9921;47.186;9.778;2023-07-09T00:53:09;0.10;;;0.10;;
19551;SDS011;9921;47.186;9.778;2023-07-09T00:55:42;0.00;;;0.00;;
19551;SDS011;9921;47.186;9.778;2023-07-09T00:58:14;0.00;;;0.00;;
19551;SDS011;9921;47.186;9.778;2023-07-09T01:00:45;0.00;;;0.00;;
19551;SDS011;9921;47.186;9.778;2023-07-09T01:03:21;0.00;;;0.00;;
19551;SDS011;9921;47.186;9.778;2023-07-09T01:05:54;0.10;;;0.10;;
19551;SDS011;9921;47.186;9.778;2023-07-09T01:08:23;0.00;;;0.00;;
19551;SDS011;9921;47.186;9.778;2023-07-09T01:10:52;0.00;;;0.00;;
19551;SDS011;9921;47.186;9.778;2023-07-09T01:13:19;0.00;;;0.00;;
19551;SDS011;9921;47.186;9.778;2023-07-09T01:15:47;0.00;;;0.00;;
19551;SDS011;9921;47.186;9.778;2023-07-09T01:18:14;0.00;;;0.00;;
19551;SDS011;9921;47.186;9.778;2023-07-09T01:20:41;0.00;;;0.00;;
19551;SDS011;9921;47.186;9.778;2023-07-09T01:23:10;0.00;;;0.00;;
19551;SDS011;9921;47.186;9.778;2023-07-09T01:25:38;0.00;;;0.00;;
19551;SDS011;9921;47.186;9.778;2023-07-09T01:28:09;0.00;;;0.00;;
19551;SDS011;9921;47.186;9.778;2023-07-09T01:30:37;0.00;;;0.00;;
19551;SDS011;9921;47.186;9.778;2023-07-09T01:33:05;0.00;;;0.00;;
19551;SDS011;9921;47.186;9.778;2023-07-09T01:35:35;0.00;;;0.00;;
19551;SDS011;9921;47.186;9.778;2023-07-09T01:38:06;0.00;;;0.00;;
19551;SDS011;9921;47.186;9.778;2023-07-09T01:40:35;0.00;;;0.00;;
19551;SDS011;9921;47.186;9.778;2023-07-09T01:43:03;0.00;;;0.00;;
19551;SDS011;9921;47.186;9.778;2023-07-09T01:45:31;0.00;;;0.00;;
19551;SDS011;9921;47.186;9.778;2023-07-09T01:47:59;0.00;;;0.00;;
19551;SDS011;9921;47.186;9.778;2023-07-09T01:50:26;0.00;;;0.00;;
19551;SDS011;9921;47.186;9.778;2023-07-09T01:52:53;0.00;;;0.00;;
19551;SDS011;9921;47.186;9.778;2023-07-09T01:55:21;0.00;;;0.00;;
19551;SDS011;9921;47.186;9.778;2023-07-09T01:57:49;0.00;;;0.00;;
19551;SDS011;9921;47.186;9.778;2023-07-09T02:00:17;0.00;;;0.00;;
19551;SDS011;9921;47.186;9.778;2023-07-09T02:02:45;0.00;;;0.00;;
19551;SDS011;9921;47.186;9.778;2023-07-09T02:05:13;0.00;;;0.00;;
19551;SDS011;9921;47.186;9.778;2023-07-09T02:07:46;0.00;;;0.00;;
19551;SDS011;9921;47.186;9.778;2023-07-09T02:10:14;0.00;;;0.00;;
19551;SDS011;9921;47.186;9.778;2023-07-09T02:12:41;0.00;;;0.00;;
19551;SDS011;9921;47.186;9.778;2023-07-09T02:15:10;0.00;;;0.00;;
19551;SDS011;9921;47.186;9.778;2023-07-09T02:17:37;0.00;;;0.00;;
19551;SDS011;9921;47.186;9.778;2023-07-09T02:20:05;0.00;;;0.00;;
19551;SDS011;9921;47.186;9.778;2023-07-09T02:22:32;0.00;;;0.00;;
19551;SDS011;9921;47.186;9.778;2023-07-09T02:24:59;0.00;;;0.00;;
19551;SDS011;9921;47.186;9.778;2023-07-09T02:27:26;0.00;;;0.00;;
19551;SDS011;9921;47.186;9.778;2023-07-09T02:29:53;0.00;;;0.00;;
19551;SDS011;9921;47.186;9.778;2023-07-09T02:32:22;0.00;;;0.00;;
19551;SDS011;9921;47.186;9.778;2023-07-09T02:34:51;0.00;;;0.00;;
19551;SDS011;9921;47.186;9.778;2023-07-09T02:37:19;0.00;;;0.00;;
19551;SDS011;9921;47.186;9.778;2023-07-09T02:39:47;0.10;;;0.10;;
19551;SDS011;9921;47.186;9.778;2023-07-09T02:42:15;0.00;;;0.00;;
19551;SDS011;9921;47.186;9.778;2023-07-09T02:44:43;0.00;;;0.00;;
19551;SDS011;9921;47.186;9.778;2023-07-09T02:47:10;0.00;;;0.00;;
19551;SDS011;9921;47.186;9.778;2023-07-09T02:49:39;0.00;;;0.00;;
19551;SDS011;9921;47.186;9.778;2023-07-09T02:52:07;0.00;;;0.00;;
19551;SDS011;9921;47.186;9.778;2023-07-09T02:54:34;0.00;;;0.00;;
19551;SDS011;9921;47.186;9.778;2023-07-09T02:57:01;0.00;;;0.00;;
19551;SDS011;9921;47.186;9.778;2023-07-09T02:59:28;0.00;;;0.00;;
19551;SDS011;9921;47.186;9.778;2023-07-09T03:01:55;0.00;;;0.00;;
19551;SDS011;9921;47.186;9.778;2023-07-09T03:04:22;0.00;;;0.00;;
19551;SDS011;9921;47.186;9.778;2023-07-09T03:06:51;0.00;;;0.00;;
19551;SDS011;9921;47.186;9.778;2023-07-09T03:09:18;0.00;;;0.00;;
19551;SDS011;9921;47.186;9.778;2023-07-09T03:11:45;0.00;;;0.00;;
19551;SDS011;9921;47.186;9.778;2023-07-09T03:14:13;0.00;;;0.00;;
19551;SDS011;9921;47.186;9.778;2023-07-09T03:16:41;0.00;;;0.00;;
19551;SDS011;9921;47.186;9.778;2023-07-09T03:19:08;0.00;;;0.00;;
19551;SDS011;9921;47.186;9.778;2023-07-09T03:21:35;0.00;;;0.00;;
19551;SDS011;9921;47.186;9.778;2023-07-09T03:24:03;0.00;;;0.00;;
19551;SDS011;9921;47.186;9.778;2023-07-09T03:26:31;0.00;;;0.00;;
19551;SDS011;9921;47.186;9.778;2023-07-09T03:28:58;0.00;;;0.00;;
19551;SDS011;9921;47.186;9.778;2023-07-09T03:31:24;0.00;;;0.00;;
19551;SDS011;9921;47.186;9.778;2023-07-09T03:33:51;0.00;;;0.00;;
19551;SDS011;9921;47.186;9.778;2023-07-09T03:36:19;0.00;;;0.00;;
19551;SDS011;9921;47.186;9.778;2023-07-09T03:38:46;0.00;;;0.00;;
19551;SDS011;9921;47.186;9.778;2023-07-09T03:41:14;0.00;;;0.00;;
19551;SDS011;9921;47.186;9.778;2023-07-09T03:43:41;0.00;;;0.00;;
19551;SDS011;9921;47.186;9.778;2023-07-09T03:46:08;0.00;;;0.00;;
19551;SDS011;9921;47.186;9.778;2023-07-09T03:48:35;0.00;;;0.00;;
19551;SDS011;9921;47.186;9.778;2023-07-09T03:51:02;0.00;;;0.00;;
19551;SDS011;9921;47.186;9.778;2023-07-09T03:53:29;0.00;;;0.00;;
19551;SDS011;9921;47.186;9.778;2023-07-09T03:55:56;0.00;;;0.00;;
19551;SDS011;9921;47.186;9.778;2023-07-09T03:58:26;0.00;;;0.00;;
19551;SDS011;9921;47.186;9.778;2023-07-09T04:00:53;0.00;;;0.00;;
19551;SDS011;9921;47.186;9.778;2023-07-09T04:03:20;0.00;;;0.00;;
19551;SDS011;9921;47.186;9.778;2023-07-09T04:05:47;0.00;;;0.00;;
19551;SDS011;9921;47.186;9.778;2023-07-09T04:08:15;0.00;;;0.00;;
19551;SDS011;9921;47.186;9.778;2023-07-09T04:10:43;0.00;;;0.00;;
19551;SDS011;9921;47.186;9.778;2023-07-09T04:13:10;0.03;;;0.03;;
19551;SDS011;9921;47.186;9.778;2023-07-09T04:15:38;0.00;;;0.00;;
19551;SDS011;9921;47.186;9.778;2023-07-09T04:18:05;0.00;;;0.00;;
19551;SDS011;9921;47.186;9.778;2023-07-09T04:20:32;0.00;;;0.00;;
19551;SDS011;9921;47.186;9.778;2023-07-09T04:23:00;0.00;;;0.00;;
19551;SDS011;9921;47.186;9.778;2023-07-09T04:25:27;0.00;;;0.00;;
19551;SDS011;9921;47.186;9.778;2023-07-09T04:27:54;0.00;;;0.00;;
19551;SDS011;9921;47.186;9.778;2023-07-09T04:30:21;0.00;;;0.00;;
19551;SDS011;9921;47.186;9.778;2023-07-09T04:32:50;0.00;;;0.00;;
19551;SDS011;9921;47.186;9.778;2023-07-09T04:35:17;0.00;;;0.00;;
19551;SDS011;9921;47.186;9.778;2023-07-09T04:37:43;0.00;;;0.00;;
19551;SDS011;9921;47.186;9.778;2023-07-09T04:40:11;0.00;;;0.00;;
19551;SDS011;9921;47.186;9.778;2023-07-09T04:42:38;0.00;;;0.00;;
19551;SDS011;9921;47.186;9.778;2023-07-09T04:45:06;0.00;;;0.00;;
19551;SDS011;9921;47.186;9.778;2023-07-09T04:47:34;0.05;;;0.05;;
19551;SDS011;9921;47.186;9.778;2023-07-09T04:50:03;0.00;;;0.00;;
19551;SDS011;9921;47.186;9.778;2023-07-09T04:52:30;0.00;;;0.00;;
19551;SDS011;9921;47.186;9.778;2023-07-09T04:54:57;0.00;;;0.00;;
19551;SDS011;9921;47.186;9.778;2023-07-09T04:57:24;0.00;;;0.00;;
19551;SDS011;9921;47.186;9.778;2023-07-09T04:59:52;0.00;;;0.00;;
19551;SDS011;9921;47.186;9.778;2023-07-09T05:02:19;0.00;;;0.00;;
19551;SDS011;9921;47.186;9.778;2023-07-09T05:04:46;0.00;;;0.00;;
19551;SDS011;9921;47.186;9.778;2023-07-09T05:07:14;0.00;;;0.00;;
19551;SDS011;9921;47.186;9.778;2023-07-09T05:09:41;0.00;;;0.00;;
19551;SDS011;9921;47.186;9.778;2023-07-09T05:12:08;0.00;;;0.00;;
19551;SDS011;9921;47.186;9.778;2023-07-09T05:14:35;0.00;;;0.00;;
19551;SDS011;9921;47.186;9.778;2023-07-09T05:17:02;0.00;;;0.00;;
19551;SDS011;9921;47.186;9.778;2023-07-09T05:19:30;0.00;;;0.00;;
19551;SDS011;9921;47.186;9.778;2023-07-09T05:21:57;0.00;;;0.00;;
19551;SDS011;9921;47.186;9.778;2023-07-09T05:24:25;0.00;;;0.00;;
19551;SDS011;9921;47.186;9.778;2023-07-09T05:26:52;0.00;;;0.00;;
19551;SDS011;9921;47.186;9.778;2023-07-09T05:29:19;0.00;;;0.00;;
19551;SDS011;9921;47.186;9.778;2023-07-09T05:31:46;0.00;;;0.00;;
19551;SDS011;9921;47.186;9.778;2023-07-09T05:34:13;0.00;;;0.00;;
19551;SDS011;9921;47.186;9.778;2023-07-09T05:36:40;0.00;;;0.00;;
19551;SDS011;9921;47.186;9.778;2023-07-09T05:39:07;0.00;;;0.00;;
19551;SDS011;9921;47.186;9.778;2023-07-09T05:41:35;0.00;;;0.00;;
19551;SDS011;9921;47.186;9.778;2023-07-09T05:44:02;0.00;;;0.00;;
19551;SDS011;9921;47.186;9.778;2023-07-09T05:46:33;0.00;;;0.00;;
19551;SDS011;9921;47.186;9.778;2023-07-09T05:49:01;0.00;;;0.00;;
19551;SDS011;9921;47.186;9.778;2023-07-09T05:51:28;0.00;;;0.00;;
19551;SDS011;9921;47.186;9.778;2023-07-09T05:53:55;0.00;;;0.00;;
19551;SDS011;9921;47.186;9.778;2023-07-09T05:56:22;0.00;;;0.00;;
19551;SDS011;9921;47.186;9.778;2023-07-09T05:58:50;0.00;;;0.00;;
19551;SDS011;9921;47.186;9.778;2023-07-09T06:01:17;0.03;;;0.03;;
19551;SDS011;9921;47.186;9.778;2023-07-09T06:03:45;0.00;;;0.00;;
19551;SDS011;9921;47.186;9.778;2023-07-09T06:06:12;0.00;;;0.00;;
19551;SDS011;9921;47.186;9.778;2023-07-09T06:08:39;0.00;;;0.00;;
19551;SDS011;9921;47.186;9.778;2023-07-09T06:11:06;0.00;;;0.00;;
19551;SDS011;9921;47.186;9.778;2023-07-09T06:13:32;0.00;;;0.00;;
19551;SDS011;9921;47.186;9.778;2023-07-09T06:16:01;0.00;;;0.00;;
19551;SDS011;9921;47.186;9.778;2023-07-09T06:18:28;0.00;;;0.00;;
19551;SDS011;9921;47.186;9.778;2023-07-09T06:20:55;0.00;;;0.00;;
19551;SDS011;9921;47.186;9.778;2023-07-09T06:23:23;0.00;;;0.00;;
19551;SDS011;9921;47.186;9.778;2023-07-09T06:25:50;0.00;;;0.00;;
19551;SDS011;9921;47.186;9.778;2023-07-09T06:28:18;0.00;;;0.00;;
19551;SDS011;9921;47.186;9.778;2023-07-09T06:30:46;0.00;;;0.00;;
19551;SDS011;9921;47.186;9.778;2023-07-09T06:33:15;0.00;;;0.00;;
19551;SDS011;9921;47.186;9.778;2023-07-09T06:35:46;0.00;;;0.00;;
19551;SDS011;9921;47.186;9.778;2023-07-09T06:38:14;0.00;;;0.00;;
19551;SDS011;9921;47.186;9.778;2023-07-09T06:40:41;0.00;;;0.00;;
19551;SDS011;9921;47.186;9.778;2023-07-09T06:43:08;0.00;;;0.00;;
19551;SDS011;9921;47.186;9.778;2023-07-09T06:45:34;0.00;;;0.00;;
19551;SDS011;9921;47.186;9.778;2023-07-09T06:48:01;0.03;;;0.03;;
19551;SDS011;9921;47.186;9.778;2023-07-09T06:50:32;0.00;;;0.00;;
19551;SDS011;9921;47.186;9.778;2023-07-09T06:52:59;0.00;;;0.00;;
19551;SDS011;9921;47.186;9.778;2023-07-09T06:55:26;0.00;;;0.00;;
19551;SDS011;9921;47.186;9.778;2023-07-09T06:57:53;0.00;;;0.00;;
19551;SDS011;9921;47.186;9.778;2023-07-09T07:00:19;0.00;;;0.00;;
19551;SDS011;9921;47.186;9.778;2023-07-09T07:02:46;0.00;;;0.00;;
19551;SDS011;9921;47.186;9.778;2023-07-09T07:05:13;0.00;;;0.00;;
19551;SDS011;9921;47.186;9.778;2023-07-09T07:07:42;0.00;;;0.00;;
19551;SDS011;9921;47.186;9.778;2023-07-09T07:10:08;0.03;;;0.03;;
19551;SDS011;9921;47.186;9.778;2023-07-09T07:12:40;0.00;;;0.00;;
19551;SDS011;9921;47.186;9.778;2023-07-09T07:15:09;0.00;;;0.00;;
19551;SDS011;9921;47.186;9.778;2023-07-09T07:17:39;0.03;;;0.03;;
19551;SDS011;9921;47.186;9.778;2023-07-09T07:20:07;0.10;;;0.10;;
19551;SDS011;9921;47.186;9.778;2023-07-09T07:22:36;0.00;;;0.00;;
19551;SDS011;9921;47.186;9.778;2023-07-09T07:25:05;0.00;;;0.00;;
19551;SDS011;9921;47.186;9.778;2023-07-09T07:27:33;0.10;;;0.10;;
19551;SDS011;9921;47.186;9.778;2023-07-09T07:30:01;0.00;;;0.00;;
19551;SDS011;9921;47.186;9.778;2023-07-09T07:32:28;0.10;;;0.10;;
19551;SDS011;9921;47.186;9.778;2023-07-09T07:34:54;0.10;;;0.10;;
19551;SDS011;9921;47.186;9.778;2023-07-09T07:37:21;0.08;;;0.08;;
19551;SDS011;9921;47.186;9.778;2023-07-09T07:39:48;0.00;;;0.00;;
19551;SDS011;9921;47.186;9.778;2023-07-09T07:42:16;0.00;;;0.00;;
19551;SDS011;9921;47.186;9.778;2023-07-09T07:44:44;0.10;;;0.10;;
19551;SDS011;9921;47.186;9.778;2023-07-09T07:47:11;0.00;;;0.00;;
19551;SDS011;9921;47.186;9.778;2023-07-09T07:49:38;0.10;;;0.10;;
19551;SDS011;9921;47.186;9.778;2023-07-09T07:52:06;0.08;;;0.08;;
19551;SDS011;9921;47.186;9.778;2023-07-09T07:54:33;0.00;;;0.00;;
19551;SDS011;9921;47.186;9.778;2023-07-09T07:57:00;0.10;;;0.10;;
19551;SDS011;9921;47.186;9.778;2023-07-09T07:59:29;0.00;;;0.00;;
19551;SDS011;9921;47.186;9.778;2023-07-09T08:01:57;0.10;;;0.10;;
19551;SDS011;9921;47.186;9.778;2023-07-09T08:04:24;0.10;;;0.10;;
19551;SDS011;9921;47.186;9.778;2023-07-09T08:06:51;0.00;;;0.00;;
19551;SDS011;9921;47.186;9.778;2023-07-09T08:09:18;0.20;;;0.20;;
19551;SDS011;9921;47.186;9.778;2023-07-09T08:11:45;0.10;;;0.10;;
19551;SDS011;9921;47.186;9.778;2023-07-09T08:14:12;0.10;;;0.10;;
19551;SDS011;9921;47.186;9.778;2023-07-09T08:16:40;0.10;;;0.10;;
19551;SDS011;9921;47.186;9.778;2023-07-09T08:19:07;0.10;;;0.10;;
19551;SDS011;9921;47.186;9.778;2023-07-09T08:21:34;0.00;;;0.00;;
19551;SDS011;9921;47.186;9.778;2023-07-09T08:24:01;0.10;;;0.10;;
19551;SDS011;9921;47.186;9.778;2023-07-09T08:26:28;0.10;;;0.10;;
19551;SDS011;9921;47.186;9.778;2023-07-09T08:28:56;0.10;;;0.10;;
19551;SDS011;9921;47.186;9.778;2023-07-09T08:31:23;0.00;;;0.00;;
19551;SDS011;9921;47.186;9.778;2023-07-09T08:33:51;0.10;;;0.10;;
19551;SDS011;9921;47.186;9.778;2023-07-09T08:36:18;0.10;;;0.10;;
19551;SDS011;9921;47.186;9.778;2023-07-09T08:38:45;0.10;;;0.10;;
19551;SDS011;9921;47.186;9.778;2023-07-09T08:41:16;0.05;;;0.05;;
19551;SDS011;9921;47.186;9.778;2023-07-09T08:43:54;0.10;;;0.10;;
19551;SDS011;9921;47.186;9.778;2023-07-09T08:46:29;0.10;;;0.10;;
19551;SDS011;9921;47.186;9.778;2023-07-09T08:49:06;0.10;;;0.10;;
19551;SDS011;9921;47.186;9.778;2023-07-09T08:51:44;0.10;;;0.10;;
19551;SDS011;9921;47.186;9.778;2023-07-09T08:54:14;0.10;;;0.10;;
19551;SDS011;9921;47.186;9.778;2023-07-09T08:56:46;0.10;;;0.10;;
19551;SDS011;9921;47.186;9.778;2023-07-09T08:59:15;0.10;;;0.10;;
19551;SDS011;9921;47.186;9.778;2023-07-09T09:01:46;0.10;;;0.10;;
19551;SDS011;9921;47.186;9.778;2023-07-09T09:04:20;0.10;;;0.10;;
19551;SDS011;9921;47.186;9.778;2023-07-09T09:06:51;0.10;;;0.10;;
19551;SDS011;9921;47.186;9.778;2023-07-09T09:09:26;0.10;;;0.10;;
19551;SDS011;9921;47.186;9.778;2023-07-09T09:11:59;0.10;;;0.10;;
19551;SDS011;9921;47.186;9.778;2023-07-09T09:14:32;0.10;;;0.10;;
19551;SDS011;9921;47.186;9.778;2023-07-09T09:17:00;0.10;;;0.10;;
19551;SDS011;9921;47.186;9.778;2023-07-09T09:19:44;0.10;;;0.10;;
19551;SDS011;9921;47.186;9.778;2023-07-09T09:22:15;0.10;;;0.10;;
19551;SDS011;9921;47.186;9.778;2023-07-09T09:24:50;0.10;;;0.10;;
19551;SDS011;9921;47.186;9.778;2023-07-09T09:27:24;0.10;;;0.10;;
19551;SDS011;9921;47.186;9.778;2023-07-09T09:29:51;0.10;;;0.10;;
19551;SDS011;9921;47.186;9.778;2023-07-09T09:32:20;0.10;;;0.10;;
19551;SDS011;9921;47.186;9.778;2023-07-09T09:34:52;0.03;;;0.03;;
19551;SDS011;9921;47.186;9.778;2023-07-09T09:37:24;0.10;;;0.10;;
19551;SDS011;9921;47.186;9.778;2023-07-09T09:39:55;0.10;;;0.10;;
19551;SDS011;9921;47.186;9.778;2023-07-09T09:42:23;0.10;;;0.10;;
19551;SDS011;9921;47.186;9.778;2023-07-09T09:44:53;0.10;;;0.10;;
19551;SDS011;9921;47.186;9.778;2023-07-09T09:47:20;0.10;;;0.10;;
19551;SDS011;9921;47.186;9.778;2023-07-09T09:49:53;0.10;;;0.10;;
19551;SDS011;9921;47.186;9.778;2023-07-09T09:52:24;0.10;;;0.10;;
19551;SDS011;9921;47.186;9.778;2023-07-09T09:55:03;0.10;;;0.10;;
19551;SDS011;9921;47.186;9.778;2023-07-09T09:57:37;0.10;;;0.10;;
19551;SDS011;9921;47.186;9.778;2023-07-09T10:00:05;0.10;;;0.10;;
19551;SDS011;9921;47.186;9.778;2023-07-09T10:02:40;0.00;;;0.00;;
19551;SDS011;9921;47.186;9.778;2023-07-09T10:05:10;0.10;;;0.10;;
19551;SDS011;9921;47.186;9.778;2023-07-09T10:07:39;0.10;;;0.10;;
19551;SDS011;9921;47.186;9.778;2023-07-09T10:10:12;0.10;;;0.10;;
19551;SDS011;9921;47.186;9.778;2023-07-09T10:12:43;0.10;;;0.10;;
19551;SDS011;9921;47.186;9.778;2023-07-09T10:15:19;0.10;;;0.10;;
19551;SDS011;9921;47.186;9.778;2023-07-09T10:17:56;0.10;;;0.10;;
19551;SDS011;9921;47.186;9.778;2023-07-09T10:20:31;0.10;;;0.10;;
19551;SDS011;9921;47.186;9.778;2023-07-09T10:23:02;0.10;;;0.10;;
19551;SDS011;9921;47.186;9.778;2023-07-09T10:25:44;0.10;;;0.10;;
19551;SDS011;9921;47.186;9.778;2023-07-09T10:31:21;0.10;;;0.10;;
19551;SDS011;9921;47.186;9.778;2023-07-09T10:33:59;0.10;;;0.10;;
19551;SDS011;9921;47.186;9.778;2023-07-09T10:36:37;0.10;;;0.10;;
19551;SDS011;9921;47.186;9.778;2023-07-09T10:39:13;0.10;;;0.10;;
19551;SDS011;9921;47.186;9.778;2023-07-09T10:41:43;0.10;;;0.10;;
19551;SDS011;9921;47.186;9.778;2023-07-09T10:44:11;0.10;;;0.10;;
19551;SDS011;9921;47.186;9.778;2023-07-09T10:46:45;0.10;;;0.10;;
19551;SDS011;9921;47.186;9.778;2023-07-09T10:49:15;0.10;;;0.10;;
19551;SDS011;9921;47.186;9.778;2023-07-09T10:51:49;0.10;;;0.10;;
19551;SDS011;9921;47.186;9.778;2023-07-09T10:54:21;0.10;;;0.10;;
19551;SDS011;9921;47.186;9.778;2023-07-09T10:56:56;0.10;;;0.10;;
19551;SDS011;9921;47.186;9.778;2023-07-09T10:59:28;0.10;;;0.10;;
19551;SDS011;9921;47.186;9.778;2023-07-09T11:01:58;0.10;;;0.10;;
19551;SDS011;9921;47.186;9.778;2023-07-09T11:04:35;0.10;;;0.10;;
19551;SDS011;9921;47.186;9.778;2023-07-09T11:07:10;0.10;;;0.10;;
19551;SDS011;9921;47.186;9.778;2023-07-09T11:09:39;0.17;;;0.17;;
19551;SDS011;9921;47.186;9.778;2023-07-09T11:12:10;0.10;;;0.10;;
19551;SDS011;9921;47.186;9.778;2023-07-09T11:14:40;0.10;;;0.10;;
19551;SDS011;9921;47.186;9.778;2023-07-09T11:17:13;0.20;;;0.20;;
19551;SDS011;9921;47.186;9.778;2023-07-09T11:19:42;0.10;;;0.10;;
19551;SDS011;9921;47.186;9.778;2023-07-09T11:22:17;0.10;;;0.10;;
19551;SDS011;9921;47.186;9.778;2023-07-09T11:24:48;0.10;;;0.10;;
19551;SDS011;9921;47.186;9.778;2023-07-09T11:27:17;0.10;;;0.10;;
19551;SDS011;9921;47.186;9.778;2023-07-09T11:29:46;0.10;;;0.10;;
19551;SDS011;9921;47.186;9.778;2023-07-09T11:32:18;0.10;;;0.10;;
19551;SDS011;9921;47.186;9.778;2023-07-09T11:34:47;0.20;;;0.20;;
19551;SDS011;9921;47.186;9.778;2023-07-09T11:37:15;0.10;;;0.10;;
19551;SDS011;9921;47.186;9.778;2023-07-09T11:39:43;0.10;;;0.10;;
19551;SDS011;9921;47.186;9.778;2023-07-09T11:42:26;0.10;;;0.10;;
19551;SDS011;9921;47.186;9.778;2023-07-09T11:44:57;0.10;;;0.10;;
19551;SDS011;9921;47.186;9.778;2023-07-09T11:47:28;0.10;;;0.10;;
19551;SDS011;9921;47.186;9.778;2023-07-09T11:50:01;0.10;;;0.10;;
19551;SDS011;9921;47.186;9.778;2023-07-09T11:52:33;0.20;;;0.20;;
19551;SDS011;9921;47.186;9.778;2023-07-09T11:55:14;0.10;;;0.10;;
19551;SDS011;9921;47.186;9.778;2023-07-09T11:57:48;0.10;;;0.10;;
19551;SDS011;9921;47.186;9.778;2023-07-09T12:00:18;0.10;;;0.10;;
19551;SDS011;9921;47.186;9.778;2023-07-09T12:02:45;0.13;;;0.13;;
19551;SDS011;9921;47.186;9.778;2023-07-09T12:05:12;0.10;;;0.10;;
19551;SDS011;9921;47.186;9.778;2023-07-09T12:07:45;0.15;;;0.15;;
19551;SDS011;9921;47.186;9.778;2023-07-09T12:10:17;0.10;;;0.10;;
19551;SDS011;9921;47.186;9.778;2023-07-09T12:12:46;0.10;;;0.10;;
19551;SDS011;9921;47.186;9.778;2023-07-09T12:15:15;0.20;;;0.20;;
19551;SDS011;9921;47.186;9.778;2023-07-09T12:17:52;0.10;;;0.10;;
19551;SDS011;9921;47.186;9.778;2023-07-09T12:20:20;0.10;;;0.10;;
19551;SDS011;9921;47.186;9.778;2023-07-09T12:22:49;0.20;;;0.20;;
19551;SDS011;9921;47.186;9.778;2023-07-09T12:25:19;0.10;;;0.10;;
19551;SDS011;9921;47.186;9.778;2023-07-09T12:27:49;0.10;;;0.10;;
19551;SDS011;9921;47.186;9.778;2023-07-09T12:30:17;0.20;;;0.20;;
19551;SDS011;9921;47.186;9.778;2023-07-09T12:32:44;0.10;;;0.10;;
19551;SDS011;9921;47.186;9.778;2023-07-09T12:35:12;0.10;;;0.10;;
19551;SDS011;9921;47.186;9.778;2023-07-09T12:37:41;0.10;;;0.10;;
19551;SDS011;9921;47.186;9.778;2023-07-09T12:40:23;0.10;;;0.10;;
19551;SDS011;9921;47.186;9.778;2023-07-09T12:42:54;0.10;;;0.10;;
19551;SDS011;9921;47.186;9.778;2023-07-09T12:45:22;0.10;;;0.10;;
19551;SDS011;9921;47.186;9.778;2023-07-09T12:47:50;0.15;;;0.15;;
19551;SDS011;9921;47.186;9.778;2023-07-09T12:50:19;0.10;;;0.10;;
19551;SDS011;9921;47.186;9.778;2023-07-09T12:52:52;0.15;;;0.15;;
19551;SDS011;9921;47.186;9.778;2023-07-09T12:55:23;0.20;;;0.20;;
19551;SDS011;9921;47.186;9.778;2023-07-09T12:57:51;0.10;;;0.10;;
19551;SDS011;9921;47.186;9.778;2023-07-09T13:00:21;0.10;;;0.10;;
19551;SDS011;9921;47.186;9.778;2023-07-09T13:02:52;0.10;;;0.10;;
19551;SDS011;9921;47.186;9.778;2023-07-09T13:05:21;0.20;;;0.20;;
19551;SDS011;9921;47.186;9.778;2023-07-09T13:07:50;0.17;;;0.17;;
19551;SDS011;9921;47.186;9.778;2023-07-09T13:10:19;0.10;;;0.10;;
19551;SDS011;9921;47.186;9.778;2023-07-09T13:12:52;0.10;;;0.10;;
19551;SDS011;9921;47.186;9.778;2023-07-09T13:15:23;0.10;;;0.10;;
19551;SDS011;9921;47.186;9.778;2023-07-09T13:17:59;0.10;;;0.10;;
19551;SDS011;9921;47.186;9.778;2023-07-09T13:20:27;0.10;;;0.10;;
19551;SDS011;9921;47.186;9.778;2023-07-09T13:22:55;0.10;;;0.10;;
19551;SDS011;9921;47.186;9.778;2023-07-09T13:25:24;0.10;;;0.10;;
19551;SDS011;9921;47.186;9.778;2023-07-09T13:27:51;0.10;;;0.10;;
19551;SDS011;9921;47.186;9.778;2023-07-09T13:30:18;0.20;;;0.20;;
19551;SDS011;9921;47.186;9.778;2023-07-09T13:32:45;0.10;;;0.10;;
19551;SDS011;9921;47.186;9.778;2023-07-09T13:35:14;0.10;;;0.10;;
19551;SDS011;9921;47.186;9.778;2023-07-09T13:37:43;0.10;;;0.10;;
19551;SDS011;9921;47.186;9.778;2023-07-09T13:40:11;0.20;;;0.20;;
19551;SDS011;9921;47.186;9.778;2023-07-09T13:42:40;0.10;;;0.10;;
19551;SDS011;9921;47.186;9.778;2023-07-09T13:45:15;0.10;;;0.10;;
19551;SDS011;9921;47.186;9.778;2023-07-09T13:47:43;0.20;;;0.20;;
19551;SDS011;9921;47.186;9.778;2023-07-09T13:50:10;0.10;;;0.10;;
19551;SDS011;9921;47.186;9.778;2023-07-09T13:52:37;0.10;;;0.10;;
19551;SDS011;9921;47.186;9.778;2023-07-09T13:55:04;0.10;;;0.10;;
19551;SDS011;9921;47.186;9.778;2023-07-09T13:57:32;0.20;;;0.20;;
19551;SDS011;9921;47.186;9.778;2023-07-09T14:00:00;0.10;;;0.10;;
19551;SDS011;9921;47.186;9.778;2023-07-09T14:02:28;0.20;;;0.20;;
19551;SDS011;9921;47.186;9.778;2023-07-09T14:04:57;0.10;;;0.10;;
19551;SDS011;9921;47.186;9.778;2023-07-09T14:07:25;0.10;;;0.10;;
19551;SDS011;9921;47.186;9.778;2023-07-09T14:09:55;0.20;;;0.20;;
19551;SDS011;9921;47.186;9.778;2023-07-09T14:12:22;0.10;;;0.10;;
19551;SDS011;9921;47.186;9.778;2023-07-09T14:14:50;0.10;;;0.10;;
19551;SDS011;9921;47.186;9.778;2023-07-09T14:17:19;0.15;;;0.15;;
19551;SDS011;9921;47.186;9.778;2023-07-09T14:19:47;0.10;;;0.10;;
19551;SDS011;9921;47.186;9.778;2023-07-09T14:22:21;0.10;;;0.10;;
19551;SDS011;9921;47.186;9.778;2023-07-09T14:24:52;0.17;;;0.17;;
19551;SDS011;9921;47.186;9.778;2023-07-09T14:27:19;0.15;;;0.15;;
19551;SDS011;9921;47.186;9.778;2023-07-09T14:29:46;0.10;;;0.10;;
19551;SDS011;9921;47.186;9.778;2023-07-09T14:32:29;0.20;;;0.20;;
19551;SDS011;9921;47.186;9.778;2023-07-09T14:34:59;0.10;;;0.10;;
19551;SDS011;9921;47.186;9.778;2023-07-09T14:37:26;0.10;;;0.10;;
19551;SDS011;9921;47.186;9.778;2023-07-09T14:39:53;0.10;;;0.10;;
19551;SDS011;9921;47.186;9.778;2023-07-09T14:42:20;0.20;;;0.20;;
19551;SDS011;9921;47.186;9.778;2023-07-09T14:44:48;0.10;;;0.10;;
19551;SDS011;9921;47.186;9.778;2023-07-09T14:47:15;0.10;;;0.10;;
19551;SDS011;9921;47.186;9.778;2023-07-09T14:49:45;0.10;;;0.10;;
19551;SDS011;9921;47.186;9.778;2023-07-09T14:52:13;0.10;;;0.10;;
19551;SDS011;9921;47.186;9.778;2023-07-09T14:54:43;0.13;;;0.13;;
19551;SDS011;9921;47.186;9.778;2023-07-09T14:57:16;0.10;;;0.10;;
19551;SDS011;9921;47.186;9.778;2023-07-09T14:59:45;0.10;;;0.10;;
19551;SDS011;9921;47.186;9.778;2023-07-09T15:02:19;0.10;;;0.10;;
19551;SDS011;9921;47.186;9.778;2023-07-09T15:04:57;0.20;;;0.20;;
19551;SDS011;9921;47.186;9.778;2023-07-09T15:07:24;0.17;;;0.17;;
19551;SDS011;9921;47.186;9.778;2023-07-09T15:09:54;0.10;;;0.10;;
19551;SDS011;9921;47.186;9.778;2023-07-09T15:12:26;0.10;;;0.10;;
19551;SDS011;9921;47.186;9.778;2023-07-09T15:14:57;0.20;;;0.20;;